sensor_id;sensor_type;location;lat;lon;timestamp;P1;durP1;ratioP1;P2;durP2;ratioP2
30410;SDS011;66159;48.722;7.632;2022-12-18T00:02:15;71.53;;;33.60;;
30410;SDS011;66159;48.722;7.632;2022-12-18T00:04:40;68.00;;;32.33;;
30410;SDS011;66159;48.722;7.632;2022-12-18T00:07:06;65.93;;;32.70;;
30410;SDS011;66159;48.722;7.632;2022-12-18T00:09:31;73.63;;;31.40;;
30410;SDS011;66159;48.722;7.632;2022-12-18T00:11:57;70.55;;;32.10;;
30410;SDS011;66159;48.722;7.632;2022-12-18T00:14:23;72.53;;;31.25;;
30410;SDS011;66159;48.722;7.632;2022-12-18T00:16:48;64.70;;;28.58;;
30410;SDS011;66159;48.722;7.632;2022-12-18T00:19:14;62.63;;;28.92;;
30410;SDS011;66159;48.722;7.632;2022-12-18T00:21:40;62.28;;;28.67;;
30410;SDS011;66159;48.722;7.632;2022-12-18T00:24:07;67.72;;;29.80;;
30410;SDS011;66159;48.722;7.632;2022-12-18T00:26:33;70.15;;;30.17;;
30410;SDS011;66159;48.722;7.632;2022-12-18T00:29:02;70.93;;;30.58;;
30410;SDS011;66159;48.722;7.632;2022-12-18T00:31:30;61.72;;;27.92;;
30410;SDS011;66159;48.722;7.632;2022-12-18T00:33:56;65.78;;;30.33;;
30410;SDS011;66159;48.722;7.632;2022-12-18T00:36:24;75.47;;;31.23;;
30410;SDS011;66159;48.722;7.632;2022-12-18T00:38:51;71.00;;;33.40;;
30410;SDS011;66159;48.722;7.632;2022-12-18T00:41:18;67.68;;;30.35;;
30410;SDS011;66159;48.722;7.632;2022-12-18T00:44:03;65.85;;;29.45;;
30410;SDS011;66159;48.722;7.632;2022-12-18T00:46:30;59.22;;;27.63;;
30410;SDS011;66159;48.722;7.632;2022-12-18T00:48:56;59.88;;;28.80;;
30410;SDS011;66159;48.722;7.632;2022-12-18T00:51:22;60.65;;;28.58;;
30410;SDS011;66159;48.722;7.632;2022-12-18T00:53:47;57.88;;;27.75;;
30410;SDS011;66159;48.722;7.632;2022-12-18T00:56:13;65.13;;;28.13;;
30410;SDS011;66159;48.722;7.632;2022-12-18T00:58:39;67.15;;;30.33;;
30410;SDS011;66159;48.722;7.632;2022-12-18T01:01:04;79.55;;;32.67;;
30410;SDS011;66159;48.722;7.632;2022-12-18T01:03:31;71.38;;;30.58;;
30410;SDS011;66159;48.722;7.632;2022-12-18T01:05:56;75.22;;;32.15;;
30410;SDS011;66159;48.722;7.632;2022-12-18T01:08:22;66.55;;;30.60;;
30410;SDS011;66159;48.722;7.632;2022-12-18T01:10:48;62.63;;;28.88;;
30410;SDS011;66159;48.722;7.632;2022-12-18T01:13:13;63.88;;;29.58;;
30410;SDS011;66159;48.722;7.632;2022-12-18T01:15:39;71.53;;;31.65;;
30410;SDS011;66159;48.722;7.632;2022-12-18T01:18:12;68.47;;;29.80;;
30410;SDS011;66159;48.722;7.632;2022-12-18T01:20:37;70.07;;;31.48;;
30410;SDS011;66159;48.722;7.632;2022-12-18T01:23:03;65.75;;;31.15;;
30410;SDS011;66159;48.722;7.632;2022-12-18T01:25:29;76.00;;;33.17;;
30410;SDS011;66159;48.722;7.632;2022-12-18T01:27:54;67.30;;;31.10;;
30410;SDS011;66159;48.722;7.632;2022-12-18T01:30:20;68.28;;;31.10;;
30410;SDS011;66159;48.722;7.632;2022-12-18T01:32:45;78.90;;;33.58;;
30410;SDS011;66159;48.722;7.632;2022-12-18T01:35:12;73.70;;;35.70;;
30410;SDS011;66159;48.722;7.632;2022-12-18T01:37:38;73.30;;;32.90;;
30410;SDS011;66159;48.722;7.632;2022-12-18T01:40:04;65.40;;;29.80;;
30410;SDS011;66159;48.722;7.632;2022-12-18T01:42:30;67.75;;;31.55;;
30410;SDS011;66159;48.722;7.632;2022-12-18T01:47:32;80.75;;;34.40;;
30410;SDS011;66159;48.722;7.632;2022-12-18T01:53:28;76.25;;;33.00;;
30410;SDS011;66159;48.722;7.632;2022-12-18T01:55:39;73.93;;;32.42;;
30410;SDS011;66159;48.722;7.632;2022-12-18T01:58:12;70.88;;;32.28;;
30410;SDS011;66159;48.722;7.632;2022-12-18T02:00:38;79.78;;;34.33;;
30410;SDS011;66159;48.722;7.632;2022-12-18T02:03:04;76.43;;;33.40;;
30410;SDS011;66159;48.722;7.632;2022-12-18T02:08:12;74.75;;;34.17;;
30410;SDS011;66159;48.722;7.632;2022-12-18T02:18:26;84.05;;;34.38;;
30410;SDS011;66159;48.722;7.632;2022-12-18T02:29:31;89.57;;;32.45;;
30410;SDS011;66159;48.722;7.632;2022-12-18T02:32:02;77.43;;;35.33;;
30410;SDS011;66159;48.722;7.632;2022-12-18T02:34:31;91.50;;;34.85;;
30410;SDS011;66159;48.722;7.632;2022-12-18T02:37:02;80.10;;;34.45;;
30410;SDS011;66159;48.722;7.632;2022-12-18T02:39:31;73.95;;;32.35;;
30410;SDS011;66159;48.722;7.632;2022-12-18T02:41:58;72.60;;;32.60;;
30410;SDS011;66159;48.722;7.632;2022-12-18T02:44:27;79.78;;;33.10;;
30410;SDS011;66159;48.722;7.632;2022-12-18T02:46:53;110.40;;;40.30;;
30410;SDS011;66159;48.722;7.632;2022-12-18T02:51:52;73.57;;;33.03;;
30410;SDS011;66159;48.722;7.632;2022-12-18T02:57:04;82.90;;;35.58;;
30410;SDS011;66159;48.722;7.632;2022-12-18T03:03:09;74.13;;;33.33;;
30410;SDS011;66159;48.722;7.632;2022-12-18T03:08:21;79.43;;;32.55;;
30410;SDS011;66159;48.722;7.632;2022-12-18T03:10:59;78.95;;;33.92;;
30410;SDS011;66159;48.722;7.632;2022-12-18T03:13:29;77.25;;;33.33;;
30410;SDS011;66159;48.722;7.632;2022-12-18T03:15:58;77.53;;;35.25;;
30410;SDS011;66159;48.722;7.632;2022-12-18T03:18:29;86.97;;;35.75;;
30410;SDS011;66159;48.722;7.632;2022-12-18T03:21:00;80.13;;;34.72;;
30410;SDS011;66159;48.722;7.632;2022-12-18T03:23:32;86.38;;;36.60;;
30410;SDS011;66159;48.722;7.632;2022-12-18T03:26:03;82.03;;;37.58;;
30410;SDS011;66159;48.722;7.632;2022-12-18T03:28:32;77.65;;;35.53;;
30410;SDS011;66159;48.722;7.632;2022-12-18T03:31:03;80.63;;;35.90;;
30410;SDS011;66159;48.722;7.632;2022-12-18T03:33:34;85.63;;;36.08;;
30410;SDS011;66159;48.722;7.632;2022-12-18T03:36:23;75.88;;;34.85;;
30410;SDS011;66159;48.722;7.632;2022-12-18T03:38:49;90.55;;;38.90;;
30410;SDS011;66159;48.722;7.632;2022-12-18T03:41:18;88.20;;;39.97;;
30410;SDS011;66159;48.722;7.632;2022-12-18T03:43:52;83.47;;;38.17;;
30410;SDS011;66159;48.722;7.632;2022-12-18T03:49:24;90.90;;;40.08;;
30410;SDS011;66159;48.722;7.632;2022-12-18T03:52:04;81.88;;;35.42;;
30410;SDS011;66159;48.722;7.632;2022-12-18T03:54:34;87.00;;;37.30;;
30410;SDS011;66159;48.722;7.632;2022-12-18T03:57:04;86.85;;;38.22;;
30410;SDS011;66159;48.722;7.632;2022-12-18T03:59:34;86.55;;;36.65;;
30410;SDS011;66159;48.722;7.632;2022-12-18T04:02:01;78.63;;;35.25;;
30410;SDS011;66159;48.722;7.632;2022-12-18T04:04:29;74.65;;;33.97;;
30410;SDS011;66159;48.722;7.632;2022-12-18T04:06:56;76.60;;;33.30;;
30410;SDS011;66159;48.722;7.632;2022-12-18T04:09:23;73.07;;;33.95;;
30410;SDS011;66159;48.722;7.632;2022-12-18T04:11:51;76.53;;;34.20;;
30410;SDS011;66159;48.722;7.632;2022-12-18T04:14:17;77.30;;;34.67;;
30410;SDS011;66159;48.722;7.632;2022-12-18T04:16:42;79.13;;;34.38;;
30410;SDS011;66159;48.722;7.632;2022-12-18T04:19:08;77.40;;;34.65;;
30410;SDS011;66159;48.722;7.632;2022-12-18T04:21:34;77.25;;;35.80;;
30410;SDS011;66159;48.722;7.632;2022-12-18T04:23:59;73.88;;;34.53;;
30410;SDS011;66159;48.722;7.632;2022-12-18T04:26:25;73.50;;;33.65;;
30410;SDS011;66159;48.722;7.632;2022-12-18T04:28:51;78.80;;;34.72;;
30410;SDS011;66159;48.722;7.632;2022-12-18T04:31:16;75.70;;;35.47;;
30410;SDS011;66159;48.722;7.632;2022-12-18T04:33:42;84.20;;;37.58;;
30410;SDS011;66159;48.722;7.632;2022-12-18T04:36:07;75.25;;;34.55;;
30410;SDS011;66159;48.722;7.632;2022-12-18T04:38:33;84.22;;;35.53;;
30410;SDS011;66159;48.722;7.632;2022-12-18T04:40:59;78.20;;;33.88;;
30410;SDS011;66159;48.722;7.632;2022-12-18T04:43:24;78.20;;;34.97;;
30410;SDS011;66159;48.722;7.632;2022-12-18T04:45:50;75.88;;;35.53;;
30410;SDS011;66159;48.722;7.632;2022-12-18T04:48:15;79.22;;;35.50;;
30410;SDS011;66159;48.722;7.632;2022-12-18T04:50:41;79.47;;;34.75;;
30410;SDS011;66159;48.722;7.632;2022-12-18T04:53:07;81.38;;;35.38;;
30410;SDS011;66159;48.722;7.632;2022-12-18T04:55:32;73.90;;;34.00;;
30410;SDS011;66159;48.722;7.632;2022-12-18T04:57:58;74.45;;;33.85;;
30410;SDS011;66159;48.722;7.632;2022-12-18T05:00:24;76.40;;;35.95;;
30410;SDS011;66159;48.722;7.632;2022-12-18T05:02:49;74.82;;;34.90;;
30410;SDS011;66159;48.722;7.632;2022-12-18T05:05:15;73.07;;;33.10;;
30410;SDS011;66159;48.722;7.632;2022-12-18T05:07:40;88.70;;;39.03;;
30410;SDS011;66159;48.722;7.632;2022-12-18T05:10:06;80.65;;;35.55;;
30410;SDS011;66159;48.722;7.632;2022-12-18T05:12:32;81.75;;;37.72;;
30410;SDS011;66159;48.722;7.632;2022-12-18T05:14:58;81.53;;;35.72;;
30410;SDS011;66159;48.722;7.632;2022-12-18T05:17:23;80.70;;;36.65;;
30410;SDS011;66159;48.722;7.632;2022-12-18T05:19:49;82.90;;;36.28;;
30410;SDS011;66159;48.722;7.632;2022-12-18T05:22:15;89.32;;;38.88;;
30410;SDS011;66159;48.722;7.632;2022-12-18T05:24:41;81.07;;;35.45;;
30410;SDS011;66159;48.722;7.632;2022-12-18T05:27:06;88.40;;;36.55;;
30410;SDS011;66159;48.722;7.632;2022-12-18T05:29:32;82.30;;;35.28;;
30410;SDS011;66159;48.722;7.632;2022-12-18T05:31:57;81.28;;;36.00;;
30410;SDS011;66159;48.722;7.632;2022-12-18T05:34:23;89.97;;;38.10;;
30410;SDS011;66159;48.722;7.632;2022-12-18T05:36:49;85.28;;;36.28;;
30410;SDS011;66159;48.722;7.632;2022-12-18T05:39:14;89.40;;;39.15;;
30410;SDS011;66159;48.722;7.632;2022-12-18T05:41:40;82.20;;;36.95;;
30410;SDS011;66159;48.722;7.632;2022-12-18T05:44:05;89.07;;;37.20;;
30410;SDS011;66159;48.722;7.632;2022-12-18T05:46:31;86.72;;;37.25;;
30410;SDS011;66159;48.722;7.632;2022-12-18T05:48:59;81.20;;;34.08;;
30410;SDS011;66159;48.722;7.632;2022-12-18T05:51:26;76.47;;;33.67;;
30410;SDS011;66159;48.722;7.632;2022-12-18T05:53:52;77.03;;;33.33;;
30410;SDS011;66159;48.722;7.632;2022-12-18T05:56:18;76.65;;;32.05;;
30410;SDS011;66159;48.722;7.632;2022-12-18T05:58:46;73.15;;;32.53;;
30410;SDS011;66159;48.722;7.632;2022-12-18T06:01:17;79.15;;;33.35;;
30410;SDS011;66159;48.722;7.632;2022-12-18T06:03:44;79.15;;;33.47;;
30410;SDS011;66159;48.722;7.632;2022-12-18T06:06:16;80.20;;;35.10;;
30410;SDS011;66159;48.722;7.632;2022-12-18T06:08:47;81.90;;;34.83;;
30410;SDS011;66159;48.722;7.632;2022-12-18T06:11:15;80.90;;;34.83;;
30410;SDS011;66159;48.722;7.632;2022-12-18T06:13:43;77.40;;;32.83;;
30410;SDS011;66159;48.722;7.632;2022-12-18T06:16:09;78.05;;;35.28;;
30410;SDS011;66159;48.722;7.632;2022-12-18T06:18:34;84.28;;;36.78;;
30410;SDS011;66159;48.722;7.632;2022-12-18T06:21:00;82.93;;;35.58;;
30410;SDS011;66159;48.722;7.632;2022-12-18T06:23:26;82.85;;;35.72;;
30410;SDS011;66159;48.722;7.632;2022-12-18T06:25:52;85.97;;;37.00;;
30410;SDS011;66159;48.722;7.632;2022-12-18T06:28:18;81.57;;;34.08;;
30410;SDS011;66159;48.722;7.632;2022-12-18T06:30:44;80.88;;;36.10;;
30410;SDS011;66159;48.722;7.632;2022-12-18T06:33:10;77.43;;;35.78;;
30410;SDS011;66159;48.722;7.632;2022-12-18T06:35:36;73.72;;;32.30;;
30410;SDS011;66159;48.722;7.632;2022-12-18T06:38:02;78.53;;;34.58;;
30410;SDS011;66159;48.722;7.632;2022-12-18T06:40:28;71.45;;;32.22;;
30410;SDS011;66159;48.722;7.632;2022-12-18T06:42:53;81.35;;;35.47;;
30410;SDS011;66159;48.722;7.632;2022-12-18T06:45:19;74.10;;;33.03;;
30410;SDS011;66159;48.722;7.632;2022-12-18T06:47:45;73.90;;;33.17;;
30410;SDS011;66159;48.722;7.632;2022-12-18T06:50:11;86.50;;;37.63;;
30410;SDS011;66159;48.722;7.632;2022-12-18T06:52:37;86.95;;;36.00;;
30410;SDS011;66159;48.722;7.632;2022-12-18T06:55:04;82.63;;;34.70;;
30410;SDS011;66159;48.722;7.632;2022-12-18T06:57:30;83.93;;;36.63;;
30410;SDS011;66159;48.722;7.632;2022-12-18T06:59:56;92.15;;;39.55;;
30410;SDS011;66159;48.722;7.632;2022-12-18T07:02:21;90.93;;;41.10;;
30410;SDS011;66159;48.722;7.632;2022-12-18T07:04:47;90.38;;;41.10;;
30410;SDS011;66159;48.722;7.632;2022-12-18T07:07:12;90.38;;;39.70;;
30410;SDS011;66159;48.722;7.632;2022-12-18T07:09:38;92.70;;;40.33;;
30410;SDS011;66159;48.722;7.632;2022-12-18T07:12:04;98.82;;;43.85;;
30410;SDS011;66159;48.722;7.632;2022-12-18T07:14:30;103.63;;;44.92;;
30410;SDS011;66159;48.722;7.632;2022-12-18T07:16:55;91.90;;;41.95;;
30410;SDS011;66159;48.722;7.632;2022-12-18T07:19:21;85.65;;;38.50;;
30410;SDS011;66159;48.722;7.632;2022-12-18T07:21:46;89.20;;;40.40;;
30410;SDS011;66159;48.722;7.632;2022-12-18T07:24:12;82.75;;;38.90;;
30410;SDS011;66159;48.722;7.632;2022-12-18T07:26:38;88.28;;;38.65;;
30410;SDS011;66159;48.722;7.632;2022-12-18T07:29:03;90.72;;;39.38;;
30410;SDS011;66159;48.722;7.632;2022-12-18T07:31:29;82.95;;;37.60;;
30410;SDS011;66159;48.722;7.632;2022-12-18T07:33:54;89.35;;;37.90;;
30410;SDS011;66159;48.722;7.632;2022-12-18T07:36:22;82.05;;;36.60;;
30410;SDS011;66159;48.722;7.632;2022-12-18T07:38:48;85.20;;;35.45;;
30410;SDS011;66159;48.722;7.632;2022-12-18T07:41:14;82.20;;;35.92;;
30410;SDS011;66159;48.722;7.632;2022-12-18T07:43:40;80.40;;;35.17;;
30410;SDS011;66159;48.722;7.632;2022-12-18T07:46:06;83.10;;;35.90;;
30410;SDS011;66159;48.722;7.632;2022-12-18T07:48:33;82.63;;;34.38;;
30410;SDS011;66159;48.722;7.632;2022-12-18T07:50:59;74.55;;;34.58;;
30410;SDS011;66159;48.722;7.632;2022-12-18T07:53:26;81.70;;;36.83;;
30410;SDS011;66159;48.722;7.632;2022-12-18T07:55:59;83.07;;;35.95;;
30410;SDS011;66159;48.722;7.632;2022-12-18T07:58:26;91.88;;;36.80;;
30410;SDS011;66159;48.722;7.632;2022-12-18T08:00:52;79.20;;;34.17;;
30410;SDS011;66159;48.722;7.632;2022-12-18T08:03:18;93.70;;;39.40;;
30410;SDS011;66159;48.722;7.632;2022-12-18T08:05:44;91.57;;;40.42;;
30410;SDS011;66159;48.722;7.632;2022-12-18T08:08:10;85.47;;;37.38;;
30410;SDS011;66159;48.722;7.632;2022-12-18T08:10:35;87.78;;;35.72;;
30410;SDS011;66159;48.722;7.632;2022-12-18T08:13:02;85.28;;;37.22;;
30410;SDS011;66159;48.722;7.632;2022-12-18T08:15:28;82.32;;;36.67;;
30410;SDS011;66159;48.722;7.632;2022-12-18T08:17:56;83.88;;;37.13;;
30410;SDS011;66159;48.722;7.632;2022-12-18T08:20:22;100.80;;;41.83;;
30410;SDS011;66159;48.722;7.632;2022-12-18T08:22:48;88.15;;;37.35;;
30410;SDS011;66159;48.722;7.632;2022-12-18T08:25:13;91.00;;;38.05;;
30410;SDS011;66159;48.722;7.632;2022-12-18T08:27:39;96.13;;;39.47;;
30410;SDS011;66159;48.722;7.632;2022-12-18T08:30:05;81.97;;;38.17;;
30410;SDS011;66159;48.722;7.632;2022-12-18T08:32:31;90.28;;;38.95;;
30410;SDS011;66159;48.722;7.632;2022-12-18T08:34:58;82.78;;;37.95;;
30410;SDS011;66159;48.722;7.632;2022-12-18T08:37:24;93.35;;;40.10;;
30410;SDS011;66159;48.722;7.632;2022-12-18T08:39:49;93.93;;;40.15;;
30410;SDS011;66159;48.722;7.632;2022-12-18T08:42:15;89.32;;;39.03;;
30410;SDS011;66159;48.722;7.632;2022-12-18T08:45:00;91.40;;;39.65;;
30410;SDS011;66159;48.722;7.632;2022-12-18T08:47:25;88.22;;;38.28;;
30410;SDS011;66159;48.722;7.632;2022-12-18T08:49:51;85.97;;;37.90;;
30410;SDS011;66159;48.722;7.632;2022-12-18T08:52:17;76.97;;;33.70;;
30410;SDS011;66159;48.722;7.632;2022-12-18T08:54:42;66.18;;;30.05;;
30410;SDS011;66159;48.722;7.632;2022-12-18T08:57:08;57.83;;;27.35;;
30410;SDS011;66159;48.722;7.632;2022-12-18T08:59:34;65.75;;;26.92;;
30410;SDS011;66159;48.722;7.632;2022-12-18T09:01:59;58.58;;;26.80;;
30410;SDS011;66159;48.722;7.632;2022-12-18T09:04:25;65.10;;;27.00;;
30410;SDS011;66159;48.722;7.632;2022-12-18T09:06:50;58.92;;;26.85;;
30410;SDS011;66159;48.722;7.632;2022-12-18T09:09:16;61.03;;;26.92;;
30410;SDS011;66159;48.722;7.632;2022-12-18T09:11:42;63.67;;;28.00;;
30410;SDS011;66159;48.722;7.632;2022-12-18T09:14:08;61.55;;;27.85;;
30410;SDS011;66159;48.722;7.632;2022-12-18T09:16:34;60.38;;;26.48;;
30410;SDS011;66159;48.722;7.632;2022-12-18T09:19:00;56.33;;;25.23;;
30410;SDS011;66159;48.722;7.632;2022-12-18T09:21:28;66.50;;;29.05;;
30410;SDS011;66159;48.722;7.632;2022-12-18T09:23:56;57.30;;;25.85;;
30410;SDS011;66159;48.722;7.632;2022-12-18T09:26:22;62.38;;;27.42;;
30410;SDS011;66159;48.722;7.632;2022-12-18T09:28:49;59.65;;;26.60;;
30410;SDS011;66159;48.722;7.632;2022-12-18T09:31:16;60.03;;;25.15;;
30410;SDS011;66159;48.722;7.632;2022-12-18T09:33:43;56.70;;;23.77;;
30410;SDS011;66159;48.722;7.632;2022-12-18T09:36:10;55.42;;;23.33;;
30410;SDS011;66159;48.722;7.632;2022-12-18T09:38:38;62.97;;;26.08;;
30410;SDS011;66159;48.722;7.632;2022-12-18T09:41:15;62.80;;;27.58;;
30410;SDS011;66159;48.722;7.632;2022-12-18T09:44:00;74.82;;;33.17;;
30410;SDS011;66159;48.722;7.632;2022-12-18T09:46:35;81.20;;;33.38;;
30410;SDS011;66159;48.722;7.632;2022-12-18T09:49:10;77.95;;;33.90;;
30410;SDS011;66159;48.722;7.632;2022-12-18T09:51:41;76.05;;;33.05;;
30410;SDS011;66159;48.722;7.632;2022-12-18T09:54:19;87.93;;;37.88;;
30410;SDS011;66159;48.722;7.632;2022-12-18T09:57:17;85.60;;;37.20;;
30410;SDS011;66159;48.722;7.632;2022-12-18T09:59:46;85.07;;;36.00;;
30410;SDS011;66159;48.722;7.632;2022-12-18T10:02:45;82.90;;;36.42;;
30410;SDS011;66159;48.722;7.632;2022-12-18T10:05:13;80.57;;;35.22;;
30410;SDS011;66159;48.722;7.632;2022-12-18T10:20:44;73.43;;;29.58;;
30410;SDS011;66159;48.722;7.632;2022-12-18T10:23:17;67.50;;;27.42;;
30410;SDS011;66159;48.722;7.632;2022-12-18T10:28:36;76.97;;;30.02;;
30410;SDS011;66159;48.722;7.632;2022-12-18T10:31:04;70.53;;;28.05;;
30410;SDS011;66159;48.722;7.632;2022-12-18T10:33:41;71.90;;;29.45;;
30410;SDS011;66159;48.722;7.632;2022-12-18T10:36:08;68.63;;;29.50;;
30410;SDS011;66159;48.722;7.632;2022-12-18T10:38:34;70.53;;;28.08;;
30410;SDS011;66159;48.722;7.632;2022-12-18T10:41:00;73.60;;;26.92;;
30410;SDS011;66159;48.722;7.632;2022-12-18T10:46:37;70.50;;;30.00;;
30410;SDS011;66159;48.722;7.632;2022-12-18T10:49:03;68.88;;;28.58;;
30410;SDS011;66159;48.722;7.632;2022-12-18T10:51:33;63.70;;;27.02;;
30410;SDS011;66159;48.722;7.632;2022-12-18T10:54:04;72.32;;;27.65;;
30410;SDS011;66159;48.722;7.632;2022-12-18T10:56:33;70.35;;;28.35;;
30410;SDS011;66159;48.722;7.632;2022-12-18T10:59:01;70.03;;;28.85;;
30410;SDS011;66159;48.722;7.632;2022-12-18T11:04:16;72.85;;;31.45;;
30410;SDS011;66159;48.722;7.632;2022-12-18T11:07:06;84.57;;;33.35;;
30410;SDS011;66159;48.722;7.632;2022-12-18T11:09:37;72.90;;;29.88;;
30410;SDS011;66159;48.722;7.632;2022-12-18T11:12:08;80.15;;;30.27;;
30410;SDS011;66159;48.722;7.632;2022-12-18T11:14:47;75.35;;;32.10;;
30410;SDS011;66159;48.722;7.632;2022-12-18T11:17:19;70.30;;;30.23;;
30410;SDS011;66159;48.722;7.632;2022-12-18T11:19:56;81.97;;;32.83;;
30410;SDS011;66159;48.722;7.632;2022-12-18T11:22:33;77.15;;;31.60;;
30410;SDS011;66159;48.722;7.632;2022-12-18T11:25:22;77.97;;;32.95;;
30410;SDS011;66159;48.722;7.632;2022-12-18T11:31:16;97.38;;;47.75;;
30410;SDS011;66159;48.722;7.632;2022-12-18T11:36:38;96.22;;;42.80;;
30410;SDS011;66159;48.722;7.632;2022-12-18T11:42:08;89.10;;;38.67;;
30410;SDS011;66159;48.722;7.632;2022-12-18T11:44:42;79.72;;;36.20;;
30410;SDS011;66159;48.722;7.632;2022-12-18T11:50:18;78.05;;;34.95;;
30410;SDS011;66159;48.722;7.632;2022-12-18T11:52:47;76.90;;;33.88;;
30410;SDS011;66159;48.722;7.632;2022-12-18T11:55:19;74.10;;;33.83;;
30410;SDS011;66159;48.722;7.632;2022-12-18T11:58:12;70.25;;;31.05;;
30410;SDS011;66159;48.722;7.632;2022-12-18T12:01:04;78.65;;;34.05;;
30410;SDS011;66159;48.722;7.632;2022-12-18T12:03:48;73.95;;;31.83;;
30410;SDS011;66159;48.722;7.632;2022-12-18T12:06:21;68.78;;;31.10;;
30410;SDS011;66159;48.722;7.632;2022-12-18T12:38:30;68.85;;;31.40;;
30410;SDS011;66159;48.722;7.632;2022-12-18T12:41:14;69.05;;;31.75;;
30410;SDS011;66159;48.722;7.632;2022-12-18T12:44:02;67.93;;;29.08;;
30410;SDS011;66159;48.722;7.632;2022-12-18T12:46:34;65.47;;;30.20;;
30410;SDS011;66159;48.722;7.632;2022-12-18T12:49:04;58.40;;;28.95;;
30410;SDS011;66159;48.722;7.632;2022-12-18T12:51:40;70.90;;;31.42;;
30410;SDS011;66159;48.722;7.632;2022-12-18T12:54:12;70.88;;;30.30;;
30410;SDS011;66159;48.722;7.632;2022-12-18T13:13:01;64.65;;;30.33;;
30410;SDS011;66159;48.722;7.632;2022-12-18T13:20:42;79.30;;;33.03;;
30410;SDS011;66159;48.722;7.632;2022-12-18T13:25:57;67.18;;;31.58;;
30410;SDS011;66159;48.722;7.632;2022-12-18T13:31:12;60.00;;;28.27;;
30410;SDS011;66159;48.722;7.632;2022-12-18T13:36:14;59.28;;;28.05;;
30410;SDS011;66159;48.722;7.632;2022-12-18T13:38:41;66.00;;;29.85;;
30410;SDS011;66159;48.722;7.632;2022-12-18T13:43:43;65.38;;;29.60;;
30410;SDS011;66159;48.722;7.632;2022-12-18T13:48:55;67.05;;;31.90;;
30410;SDS011;66159;48.722;7.632;2022-12-18T13:51:21;69.65;;;31.60;;
30410;SDS011;66159;48.722;7.632;2022-12-18T13:53:49;77.90;;;35.17;;
30410;SDS011;66159;48.722;7.632;2022-12-18T13:56:34;79.68;;;36.92;;
30410;SDS011;66159;48.722;7.632;2022-12-18T13:59:14;102.18;;;44.17;;
30410;SDS011;66159;48.722;7.632;2022-12-18T14:01:47;98.88;;;43.25;;
30410;SDS011;66159;48.722;7.632;2022-12-18T14:06:49;98.70;;;44.25;;
30410;SDS011;66159;48.722;7.632;2022-12-18T14:09:19;105.57;;;45.08;;
30410;SDS011;66159;48.722;7.632;2022-12-18T14:11:49;106.15;;;43.78;;
30410;SDS011;66159;48.722;7.632;2022-12-18T14:14:16;99.82;;;42.40;;
30410;SDS011;66159;48.722;7.632;2022-12-18T14:16:43;92.50;;;40.80;;
30410;SDS011;66159;48.722;7.632;2022-12-18T14:19:14;93.57;;;39.97;;
30410;SDS011;66159;48.722;7.632;2022-12-18T14:21:48;93.20;;;41.75;;
30410;SDS011;66159;48.722;7.632;2022-12-18T14:24:16;96.72;;;43.17;;
30410;SDS011;66159;48.722;7.632;2022-12-18T14:26:44;94.18;;;41.90;;
30410;SDS011;66159;48.722;7.632;2022-12-18T14:29:22;93.70;;;41.55;;
30410;SDS011;66159;48.722;7.632;2022-12-18T14:34:38;85.73;;;39.57;;
30410;SDS011;66159;48.722;7.632;2022-12-18T14:37:05;93.97;;;41.10;;
30410;SDS011;66159;48.722;7.632;2022-12-18T14:39:34;96.10;;;42.10;;
30410;SDS011;66159;48.722;7.632;2022-12-18T14:42:00;94.25;;;41.92;;
30410;SDS011;66159;48.722;7.632;2022-12-18T14:44:25;96.88;;;44.72;;
30410;SDS011;66159;48.722;7.632;2022-12-18T14:46:51;88.35;;;40.03;;
30410;SDS011;66159;48.722;7.632;2022-12-18T14:51:50;91.93;;;39.85;;
30410;SDS011;66159;48.722;7.632;2022-12-18T14:54:19;94.78;;;42.45;;
30410;SDS011;66159;48.722;7.632;2022-12-18T14:56:46;94.65;;;40.95;;
30410;SDS011;66159;48.722;7.632;2022-12-18T14:59:23;95.65;;;42.67;;
30410;SDS011;66159;48.722;7.632;2022-12-18T15:01:57;88.45;;;39.25;;
30410;SDS011;66159;48.722;7.632;2022-12-18T15:04:39;87.10;;;37.83;;
30410;SDS011;66159;48.722;7.632;2022-12-18T15:07:19;89.90;;;39.75;;
30410;SDS011;66159;48.722;7.632;2022-12-18T15:12:39;92.70;;;40.15;;
30410;SDS011;66159;48.722;7.632;2022-12-18T15:20:38;100.15;;;41.55;;
30410;SDS011;66159;48.722;7.632;2022-12-18T15:23:19;104.22;;;47.47;;
30410;SDS011;66159;48.722;7.632;2022-12-18T15:26:23;100.47;;;42.60;;
30410;SDS011;66159;48.722;7.632;2022-12-18T15:28:50;95.88;;;42.63;;
30410;SDS011;66159;48.722;7.632;2022-12-18T15:36:20;96.82;;;41.35;;
30410;SDS011;66159;48.722;7.632;2022-12-18T15:38:51;90.13;;;38.33;;
30410;SDS011;66159;48.722;7.632;2022-12-18T15:41:20;89.93;;;40.53;;
30410;SDS011;66159;48.722;7.632;2022-12-18T15:43:47;98.13;;;41.80;;
30410;SDS011;66159;48.722;7.632;2022-12-18T15:46:16;90.78;;;39.25;;
30410;SDS011;66159;48.722;7.632;2022-12-18T15:48:47;89.72;;;41.88;;
30410;SDS011;66159;48.722;7.632;2022-12-18T15:51:16;88.53;;;40.15;;
30410;SDS011;66159;48.722;7.632;2022-12-18T15:53:45;93.20;;;41.42;;
30410;SDS011;66159;48.722;7.632;2022-12-18T15:56:12;93.28;;;40.33;;
30410;SDS011;66159;48.722;7.632;2022-12-18T15:58:57;106.00;;;45.15;;
30410;SDS011;66159;48.722;7.632;2022-12-18T16:01:24;98.00;;;42.72;;
30410;SDS011;66159;48.722;7.632;2022-12-18T16:03:51;117.47;;;48.17;;
30410;SDS011;66159;48.722;7.632;2022-12-18T16:06:18;118.18;;;47.30;;
30410;SDS011;66159;48.722;7.632;2022-12-18T16:08:44;99.32;;;43.13;;
30410;SDS011;66159;48.722;7.632;2022-12-18T16:11:31;103.07;;;44.33;;
30410;SDS011;66159;48.722;7.632;2022-12-18T16:14:19;93.35;;;39.90;;
30410;SDS011;66159;48.722;7.632;2022-12-18T16:16:47;86.07;;;37.65;;
30410;SDS011;66159;48.722;7.632;2022-12-18T16:19:14;88.85;;;39.00;;
30410;SDS011;66159;48.722;7.632;2022-12-18T16:21:41;95.57;;;40.83;;
30410;SDS011;66159;48.722;7.632;2022-12-18T16:24:14;96.05;;;40.17;;
30410;SDS011;66159;48.722;7.632;2022-12-18T16:26:41;88.20;;;38.40;;
30410;SDS011;66159;48.722;7.632;2022-12-18T16:29:07;97.90;;;40.97;;
30410;SDS011;66159;48.722;7.632;2022-12-18T16:31:33;95.72;;;41.05;;
30410;SDS011;66159;48.722;7.632;2022-12-18T16:36:51;100.20;;;43.70;;
30410;SDS011;66159;48.722;7.632;2022-12-18T16:39:24;115.85;;;47.92;;
30410;SDS011;66159;48.722;7.632;2022-12-18T16:41:50;93.15;;;40.53;;
30410;SDS011;66159;48.722;7.632;2022-12-18T16:44:16;96.47;;;40.33;;
30410;SDS011;66159;48.722;7.632;2022-12-18T16:46:42;98.32;;;42.58;;
30410;SDS011;66159;48.722;7.632;2022-12-18T16:49:10;98.88;;;41.15;;
30410;SDS011;66159;48.722;7.632;2022-12-18T16:51:37;96.18;;;42.63;;
30410;SDS011;66159;48.722;7.632;2022-12-18T16:54:02;97.28;;;41.03;;
30410;SDS011;66159;48.722;7.632;2022-12-18T16:56:29;98.43;;;41.92;;
30410;SDS011;66159;48.722;7.632;2022-12-18T16:58:56;93.65;;;42.22;;
30410;SDS011;66159;48.722;7.632;2022-12-18T17:01:23;91.40;;;41.42;;
30410;SDS011;66159;48.722;7.632;2022-12-18T17:03:54;87.40;;;39.58;;
30410;SDS011;66159;48.722;7.632;2022-12-18T17:06:27;97.50;;;41.03;;
30410;SDS011;66159;48.722;7.632;2022-12-18T17:08:55;89.93;;;40.25;;
30410;SDS011;66159;48.722;7.632;2022-12-18T17:11:23;87.47;;;37.95;;
30410;SDS011;66159;48.722;7.632;2022-12-18T17:13:49;88.95;;;41.05;;